createdAt,value
2022-10-05T00:00:02.325Z,6.3
2022-10-05T00:05:02.304Z,6.3
2022-10-05T00:10:01.721Z,6.3
2022-10-05T00:15:09.408Z,5.9
2022-10-05T00:20:01.731Z,5.2
2022-10-05T00:25:01.697Z,5.4
2022-10-05T00:30:10.433Z,5.2
2022-10-05T00:35:01.504Z,5.5
2022-10-05T00:40:06.529Z,5.6
2022-10-05T00:45:08.431Z,6.4
2022-10-05T00:50:01.378Z,6.4
2022-10-05T00:55:01.754Z,6.6
2022-10-05T01:00:06.088Z,6.5
2022-10-05T01:05:11.841Z,6.2
2022-10-05T01:10:01.659Z,5.8
2022-10-05T01:15:15.486Z,5.2
2022-10-05T01:20:01.150Z,5.1
2022-10-05T01:25:01.512Z,5.1
2022-10-05T01:31:17.591Z,5.1
2022-10-05T01:36:01.937Z,5.5
2022-10-05T01:41:01.643Z,5.6
2022-10-05T01:46:01.793Z,5.6
2022-10-05T01:51:01.657Z,5.6
2022-10-05T01:56:17.537Z,6.1
2022-10-05T02:01:01.737Z,6.2
2022-10-05T02:06:01.294Z,7.0
2022-10-05T02:11:02.006Z,7.6
2022-10-05T02:16:06.545Z,7.8
2022-10-05T02:21:01.752Z,7.6
2022-10-05T02:26:02.744Z,7.7
2022-10-05T02:31:02.178Z,7.6
2022-10-05T02:36:01.753Z,7.4
2022-10-05T02:46:17.673Z,7.7
2022-10-05T02:51:01.788Z,8.0
2022-10-05T02:56:01.570Z,8.4
2022-10-05T03:01:01.722Z,9.0
2022-10-05T03:06:01.695Z,9.4
2022-10-05T03:16:01.644Z,9.6
2022-10-05T03:21:01.695Z,9.4
2022-10-05T03:26:01.769Z,9.2
2022-10-05T03:31:02.046Z,9.4
2022-10-05T03:36:09.054Z,8.9
2022-10-05T03:41:11.783Z,8.3
2022-10-05T03:46:01.655Z,7.8
2022-10-05T03:56:08.425Z,7.2
2022-10-05T04:01:01.846Z,8.0
2022-10-05T04:06:07.637Z,8.9
2022-10-05T04:11:01.712Z,9.4
2022-10-05T04:16:01.890Z,10.1
2022-10-05T04:21:01.820Z,9.5
2022-10-05T04:26:01.583Z,8.8
2022-10-05T04:31:01.935Z,7.6
2022-10-05T04:36:10.635Z,7.2
2022-10-05T04:41:01.495Z,6.2
2022-10-05T04:46:10.492Z,6.7
2022-10-05T04:51:13.746Z,10.9
2022-10-05T04:56:12.202Z,19.2
2022-10-05T05:01:11.371Z,23.5
2022-10-05T05:11:01.459Z,27.2
2022-10-05T05:16:07.819Z,23.6
2022-10-05T05:21:01.687Z,18.0
2022-10-05T05:26:01.617Z,15.2
2022-10-05T05:31:02.054Z,13.9
2022-10-05T05:36:01.662Z,13.5
2022-10-05T05:41:01.754Z,13.6
2022-10-05T05:46:01.724Z,11.8
2022-10-05T05:51:01.656Z,10.9
2022-10-05T05:56:01.581Z,10.5
2022-10-05T06:01:01.711Z,9.5
2022-10-05T06:06:01.720Z,9.8
2022-10-05T06:11:01.694Z,10.2
2022-10-05T06:16:02.022Z,10.6
2022-10-05T06:21:01.812Z,10.8
2022-10-05T06:26:01.708Z,11.9
2022-10-05T06:31:01.835Z,11.5
2022-10-05T06:36:14.512Z,11.1
2022-10-05T06:41:09.275Z,11.3
2022-10-05T06:46:02.090Z,11.1
2022-10-05T06:56:08.075Z,11.2
2022-10-05T07:01:07.258Z,11.4
2022-10-05T07:06:01.738Z,11.0
2022-10-05T07:11:17.455Z,11.2
2022-10-05T07:16:02.054Z,11.0
2022-10-05T07:21:17.182Z,10.8
2022-10-05T07:26:06.115Z,10.5
2022-10-05T07:31:18.157Z,10.1
2022-10-05T07:36:08.241Z,8.9
2022-10-05T07:41:01.521Z,8.4
2022-10-05T07:46:01.987Z,8.3
2022-10-05T07:52:05.818Z,7.9
2022-10-05T07:57:10.731Z,7.7
2022-10-05T08:02:18.580Z,8.1
2022-10-05T08:07:04.814Z,8.0
2022-10-05T08:12:17.601Z,7.1
2022-10-05T08:17:01.719Z,6.9
2022-10-05T08:22:01.903Z,6.4
2022-10-05T08:27:01.686Z,5.8
2022-10-05T08:32:05.761Z,5.8
2022-10-05T08:37:01.719Z,5.8
2022-10-05T08:42:01.737Z,5.8
2022-10-05T08:52:01.841Z,6.2
2022-10-05T08:57:01.713Z,6.2
2022-10-05T09:02:13.729Z,7.0
2022-10-05T09:12:17.121Z,7.1
2022-10-05T09:17:17.309Z,7.2
2022-10-05T09:22:01.796Z,7.2
2022-10-05T09:27:09.146Z,7.0
2022-10-05T09:32:17.189Z,7.6
2022-10-05T09:37:04.205Z,7.3
2022-10-05T09:47:01.690Z,7.0
2022-10-05T09:52:01.812Z,7.0
2022-10-05T09:57:01.682Z,6.8
2022-10-05T10:02:01.868Z,7.4
2022-10-05T10:07:01.717Z,7.7
2022-10-05T10:12:01.804Z,7.5
2022-10-05T10:22:01.968Z,7.4
2022-10-05T10:27:11.245Z,6.9
2022-10-05T10:32:01.612Z,6.7
2022-10-05T10:37:17.247Z,6.9
2022-10-05T10:42:01.699Z,6.8
2022-10-05T10:47:16.468Z,6.8
2022-10-05T10:52:09.684Z,7.0
2022-10-05T10:57:01.588Z,6.9
2022-10-05T11:02:02.086Z,6.5
2022-10-05T11:07:17.341Z,6.5
2022-10-05T11:12:01.676Z,6.6
2022-10-05T11:17:17.382Z,6.4
2022-10-05T11:22:12.266Z,6.2
2022-10-05T11:27:11.451Z,6.3
2022-10-05T11:32:01.635Z,6.0
2022-10-05T11:37:01.576Z,5.4
2022-10-05T11:42:01.733Z,5.0
2022-10-05T11:47:01.703Z,4.8
2022-10-05T11:52:01.658Z,4.5
2022-10-05T11:57:02.637Z,4.2
2022-10-05T12:02:01.622Z,4.5
2022-10-05T12:07:01.710Z,4.8
2022-10-05T12:17:01.624Z,4.7
2022-10-05T12:22:01.589Z,4.7
2022-10-05T12:27:01.757Z,4.0
2022-10-05T12:32:01.707Z,3.6
2022-10-05T12:37:05.978Z,3.7
2022-10-05T12:42:01.853Z,4.0
2022-10-05T12:47:01.765Z,4.3
2022-10-05T12:52:01.728Z,4.6
2022-10-05T12:57:01.737Z,4.6
2022-10-05T13:12:01.881Z,4.1
2022-10-05T13:17:01.873Z,4.0
2022-10-05T13:22:01.738Z,4.4
2022-10-05T13:27:01.693Z,4.4
2022-10-05T13:42:02.000Z,4.2
2022-10-05T13:47:07.942Z,4.0
2022-10-05T13:52:01.739Z,4.0
2022-10-05T13:57:01.526Z,3.7
2022-10-05T14:02:01.908Z,3.8
2022-10-05T14:07:01.613Z,3.6
2022-10-05T14:12:01.751Z,3.7
2022-10-05T14:22:01.589Z,2.9
2022-10-05T14:27:01.758Z,2.5
2022-10-05T14:32:18.029Z,2.2
2022-10-05T14:37:01.624Z,1.7
2022-10-05T14:42:01.706Z,1.7
2022-10-05T14:47:01.683Z,1.6
2022-10-05T14:52:17.397Z,1.9
2022-10-05T14:57:01.618Z,2.0
2022-10-05T15:02:17.293Z,1.9
2022-10-05T15:07:04.633Z,2.0
2022-10-05T15:12:01.631Z,2.2
2022-10-05T15:22:01.784Z,2.4
2022-10-05T15:27:01.708Z,2.6
2022-10-05T15:32:01.674Z,2.8
2022-10-05T15:37:17.342Z,3.2
2022-10-05T15:47:04.327Z,3.8
2022-10-05T15:57:01.723Z,4.1
2022-10-05T16:03:12.039Z,3.8
2022-10-05T16:08:02.110Z,4.0
2022-10-05T16:13:01.814Z,3.7
2022-10-05T16:18:01.630Z,4.3
2022-10-05T16:23:01.635Z,4.2
2022-10-05T16:33:01.949Z,4.1
2022-10-05T16:38:01.599Z,3.9
2022-10-05T16:43:09.533Z,3.8
2022-10-05T16:48:11.620Z,3.9
2022-10-05T16:54:14.809Z,4.1
2022-10-05T16:59:01.714Z,4.9
2022-10-05T17:04:01.720Z,5.7
2022-10-05T17:09:01.707Z,5.8
2022-10-05T17:14:11.318Z,6.7
2022-10-05T17:19:01.591Z,7.2
2022-10-05T17:24:01.813Z,7.2
2022-10-05T17:29:01.639Z,7.6
2022-10-05T17:34:01.642Z,8.7
2022-10-05T17:39:01.449Z,11.2
2022-10-05T17:44:01.500Z,12.4
2022-10-05T17:49:01.494Z,13.4
2022-10-05T17:54:01.458Z,13.8
2022-10-05T17:59:01.344Z,14.5
2022-10-05T18:04:01.461Z,13.0
2022-10-05T18:14:17.299Z,13.4
2022-10-05T18:19:12.904Z,13.9
2022-10-05T18:24:17.643Z,13.7
2022-10-05T18:29:01.628Z,13.8
2022-10-05T18:34:01.385Z,15.0
2022-10-05T18:39:01.947Z,15.4
2022-10-05T18:44:01.679Z,14.9
2022-10-05T18:49:01.561Z,14.6
2022-10-05T18:54:01.593Z,14.9
2022-10-05T18:59:01.777Z,13.7
2022-10-05T19:04:01.586Z,13.3
2022-10-05T19:09:01.704Z,13.6
2022-10-05T19:14:01.722Z,13.2
2022-10-05T19:19:01.807Z,12.3
2022-10-05T19:29:01.729Z,11.6
2022-10-05T19:34:09.744Z,11.4
2022-10-05T19:39:06.770Z,11.3
2022-10-05T19:44:17.025Z,10.9
2022-10-05T19:49:01.583Z,10.3
2022-10-05T19:54:17.508Z,9.9
2022-10-05T19:59:01.705Z,9.6
2022-10-05T20:04:01.697Z,8.9
2022-10-05T20:09:01.548Z,8.6
2022-10-05T20:14:01.714Z,8.4
2022-10-05T20:24:01.456Z,8.3
2022-10-05T20:29:01.540Z,8.6
2022-10-05T20:34:02.211Z,9.2
2022-10-05T20:39:01.804Z,9.2
2022-10-05T20:44:01.824Z,9.2
2022-10-05T20:49:01.782Z,9.5
2022-10-05T20:54:01.852Z,9.4
2022-10-05T20:59:01.622Z,9.2
2022-10-05T21:04:01.719Z,9.4
2022-10-05T21:09:02.188Z,8.9
2022-10-05T21:15:03.264Z,8.4
2022-10-05T21:20:01.333Z,8.0
2022-10-05T21:30:02.019Z,7.8
2022-10-05T21:35:01.835Z,7.2
2022-10-05T21:40:01.629Z,7.3
2022-10-05T21:45:02.208Z,7.6
2022-10-05T21:50:01.719Z,7.4
2022-10-05T21:55:01.650Z,6.8
2022-10-05T22:00:05.960Z,7.1
2022-10-05T22:05:01.685Z,6.6
2022-10-05T22:10:02.240Z,6.2
2022-10-05T22:15:02.184Z,5.6
2022-10-05T22:21:01.737Z,5.8
2022-10-05T22:26:01.736Z,5.5
2022-10-05T22:31:01.796Z,5.9
2022-10-05T22:36:01.719Z,5.9
2022-10-05T22:41:01.709Z,6.0
2022-10-05T22:46:01.912Z,5.8
2022-10-05T22:51:01.801Z,5.8
2022-10-05T22:56:01.730Z,5.5
2022-10-05T23:01:01.940Z,5.4
2022-10-05T23:06:01.791Z,5.6
2022-10-05T23:11:01.817Z,5.8
2022-10-05T23:16:01.686Z,5.8
2022-10-05T23:21:01.746Z,6.0
2022-10-05T23:26:01.687Z,6.0
2022-10-05T23:31:04.320Z,5.8
2022-10-05T23:36:01.735Z,5.7
2022-10-05T23:51:02.206Z,5.6
2022-10-05T23:56:01.711Z,5.7
